sensor_id;sensor_type;location;lat;lon;timestamp;P1;durP1;ratioP1;P2;durP2;ratioP2
61460;SDS011;47325;50.506;4.472;2024-01-30T00:05:12;6.70;;;4.00;;
61460;SDS011;47325;50.506;4.472;2024-01-30T00:10:56;5.90;;;3.90;;
61460;SDS011;47325;50.506;4.472;2024-01-30T00:16:41;6.30;;;4.00;;
61460;SDS011;47325;50.506;4.472;2024-01-30T00:22:25;5.50;;;3.60;;
61460;SDS011;47325;50.506;4.472;2024-01-30T00:28:10;6.70;;;4.00;;
61460;SDS011;47325;50.506;4.472;2024-01-30T00:33:54;5.50;;;4.00;;
61460;SDS011;47325;50.506;4.472;2024-01-30T00:39:39;5.90;;;3.60;;
61460;SDS011;47325;50.506;4.472;2024-01-30T00:45:23;6.50;;;4.10;;
61460;SDS011;47325;50.506;4.472;2024-01-30T00:51:08;6.50;;;3.80;;
61460;SDS011;47325;50.506;4.472;2024-01-30T00:56:52;6.30;;;4.30;;
61460;SDS011;47325;50.506;4.472;2024-01-30T01:02:36;5.60;;;3.80;;
61460;SDS011;47325;50.506;4.472;2024-01-30T01:08:21;6.10;;;3.80;;
61460;SDS011;47325;50.506;4.472;2024-01-30T01:14:05;5.90;;;3.50;;
61460;SDS011;47325;50.506;4.472;2024-01-30T01:19:50;5.40;;;3.50;;
61460;SDS011;47325;50.506;4.472;2024-01-30T01:25:35;6.60;;;3.50;;
61460;SDS011;47325;50.506;4.472;2024-01-30T01:31:19;6.80;;;3.80;;
61460;SDS011;47325;50.506;4.472;2024-01-30T01:37:05;6.40;;;3.70;;
61460;SDS011;47325;50.506;4.472;2024-01-30T01:42:51;6.90;;;4.10;;
61460;SDS011;47325;50.506;4.472;2024-01-30T01:48:35;7.40;;;4.60;;
61460;SDS011;47325;50.506;4.472;2024-01-30T01:54:21;9.20;;;4.50;;
61460;SDS011;47325;50.506;4.472;2024-01-30T02:00:06;6.90;;;4.10;;
61460;SDS011;47325;50.506;4.472;2024-01-30T02:05:51;8.50;;;4.40;;
61460;SDS011;47325;50.506;4.472;2024-01-30T02:11:35;7.10;;;4.20;;
61460;SDS011;47325;50.506;4.472;2024-01-30T02:17:19;7.10;;;3.90;;
61460;SDS011;47325;50.506;4.472;2024-01-30T02:23:05;7.20;;;4.10;;
61460;SDS011;47325;50.506;4.472;2024-01-30T02:28:51;8.70;;;4.30;;
61460;SDS011;47325;50.506;4.472;2024-01-30T02:34:35;7.50;;;4.00;;
61460;SDS011;47325;50.506;4.472;2024-01-30T02:40:20;8.00;;;4.20;;
61460;SDS011;47325;50.506;4.472;2024-01-30T02:46:04;6.40;;;4.20;;
61460;SDS011;47325;50.506;4.472;2024-01-30T02:51:49;7.10;;;4.40;;
61460;SDS011;47325;50.506;4.472;2024-01-30T02:57:34;6.10;;;3.70;;
61460;SDS011;47325;50.506;4.472;2024-01-30T03:03:18;5.80;;;3.90;;
61460;SDS011;47325;50.506;4.472;2024-01-30T03:09:03;7.20;;;4.10;;
61460;SDS011;47325;50.506;4.472;2024-01-30T03:14:47;6.70;;;3.90;;
61460;SDS011;47325;50.506;4.472;2024-01-30T03:20:31;6.30;;;3.80;;
61460;SDS011;47325;50.506;4.472;2024-01-30T03:26:15;5.90;;;3.80;;
61460;SDS011;47325;50.506;4.472;2024-01-30T03:32:00;5.90;;;3.60;;
61460;SDS011;47325;50.506;4.472;2024-01-30T03:37:44;7.00;;;3.80;;
61460;SDS011;47325;50.506;4.472;2024-01-30T03:43:29;6.60;;;3.80;;
61460;SDS011;47325;50.506;4.472;2024-01-30T03:49:13;6.00;;;3.50;;
61460;SDS011;47325;50.506;4.472;2024-01-30T03:54:58;5.80;;;3.60;;
61460;SDS011;47325;50.506;4.472;2024-01-30T04:00:43;7.60;;;4.00;;
61460;SDS011;47325;50.506;4.472;2024-01-30T04:06:28;6.10;;;3.60;;
61460;SDS011;47325;50.506;4.472;2024-01-30T04:12:13;5.70;;;3.50;;
61460;SDS011;47325;50.506;4.472;2024-01-30T04:18:00;7.10;;;3.80;;
61460;SDS011;47325;50.506;4.472;2024-01-30T04:23:45;6.30;;;3.80;;
61460;SDS011;47325;50.506;4.472;2024-01-30T04:29:30;6.60;;;4.00;;
61460;SDS011;47325;50.506;4.472;2024-01-30T04:35:14;5.80;;;3.60;;
61460;SDS011;47325;50.506;4.472;2024-01-30T04:40:59;5.60;;;3.40;;
61460;SDS011;47325;50.506;4.472;2024-01-30T04:46:44;6.60;;;3.70;;
61460;SDS011;47325;50.506;4.472;2024-01-30T04:52:28;5.50;;;3.50;;
61460;SDS011;47325;50.506;4.472;2024-01-30T04:58:13;5.70;;;3.70;;
61460;SDS011;47325;50.506;4.472;2024-01-30T05:03:59;7.00;;;3.60;;
61460;SDS011;47325;50.506;4.472;2024-01-30T05:09:44;6.30;;;3.50;;
61460;SDS011;47325;50.506;4.472;2024-01-30T05:15:28;5.50;;;3.50;;
61460;SDS011;47325;50.506;4.472;2024-01-30T05:21:12;6.10;;;3.90;;
61460;SDS011;47325;50.506;4.472;2024-01-30T05:26:57;6.50;;;3.80;;
61460;SDS011;47325;50.506;4.472;2024-01-30T05:32:41;6.30;;;3.80;;
61460;SDS011;47325;50.506;4.472;2024-01-30T05:38:25;6.10;;;3.70;;
61460;SDS011;47325;50.506;4.472;2024-01-30T05:44:10;6.40;;;3.60;;
61460;SDS011;47325;50.506;4.472;2024-01-30T05:49:54;6.50;;;3.80;;
61460;SDS011;47325;50.506;4.472;2024-01-30T05:55:38;6.30;;;3.70;;
61460;SDS011;47325;50.506;4.472;2024-01-30T06:01:22;4.70;;;3.50;;
61460;SDS011;47325;50.506;4.472;2024-01-30T06:07:07;6.90;;;3.60;;
61460;SDS011;47325;50.506;4.472;2024-01-30T06:12:52;5.10;;;3.30;;
61460;SDS011;47325;50.506;4.472;2024-01-30T06:18:36;5.60;;;3.50;;
61460;SDS011;47325;50.506;4.472;2024-01-30T06:24:20;6.00;;;3.70;;
61460;SDS011;47325;50.506;4.472;2024-01-30T06:30:05;5.70;;;3.50;;
61460;SDS011;47325;50.506;4.472;2024-01-30T06:35:50;6.90;;;3.70;;
61460;SDS011;47325;50.506;4.472;2024-01-30T06:41:35;7.50;;;4.20;;
61460;SDS011;47325;50.506;4.472;2024-01-30T06:47:19;5.70;;;3.70;;
61460;SDS011;47325;50.506;4.472;2024-01-30T06:53:05;5.70;;;3.80;;
61460;SDS011;47325;50.506;4.472;2024-01-30T06:58:49;8.30;;;4.60;;
61460;SDS011;47325;50.506;4.472;2024-01-30T07:04:34;6.10;;;3.80;;
61460;SDS011;47325;50.506;4.472;2024-01-30T07:10:26;8.20;;;4.40;;
61460;SDS011;47325;50.506;4.472;2024-01-30T07:16:10;7.00;;;3.90;;
61460;SDS011;47325;50.506;4.472;2024-01-30T07:21:55;9.00;;;4.40;;
61460;SDS011;47325;50.506;4.472;2024-01-30T07:27:39;6.90;;;4.30;;
61460;SDS011;47325;50.506;4.472;2024-01-30T07:33:23;6.90;;;4.10;;
61460;SDS011;47325;50.506;4.472;2024-01-30T07:39:09;8.50;;;4.10;;
61460;SDS011;47325;50.506;4.472;2024-01-30T07:44:54;7.60;;;4.00;;
61460;SDS011;47325;50.506;4.472;2024-01-30T07:50:38;7.80;;;4.20;;
61460;SDS011;47325;50.506;4.472;2024-01-30T07:56:22;7.90;;;4.20;;
61460;SDS011;47325;50.506;4.472;2024-01-30T08:02:07;9.00;;;3.80;;
61460;SDS011;47325;50.506;4.472;2024-01-30T08:07:51;6.40;;;4.10;;
61460;SDS011;47325;50.506;4.472;2024-01-30T08:13:36;7.10;;;3.90;;
61460;SDS011;47325;50.506;4.472;2024-01-30T08:19:21;8.40;;;4.30;;
61460;SDS011;47325;50.506;4.472;2024-01-30T08:25:06;7.40;;;4.20;;
61460;SDS011;47325;50.506;4.472;2024-01-30T08:30:51;8.90;;;4.00;;
61460;SDS011;47325;50.506;4.472;2024-01-30T08:36:36;6.80;;;4.60;;
61460;SDS011;47325;50.506;4.472;2024-01-30T08:42:20;5.90;;;4.10;;
61460;SDS011;47325;50.506;4.472;2024-01-30T08:48:08;7.00;;;4.10;;
61460;SDS011;47325;50.506;4.472;2024-01-30T08:53:53;7.10;;;4.20;;
61460;SDS011;47325;50.506;4.472;2024-01-30T08:59:37;6.00;;;3.80;;
61460;SDS011;47325;50.506;4.472;2024-01-30T09:05:21;6.80;;;3.90;;
61460;SDS011;47325;50.506;4.472;2024-01-30T09:11:08;6.50;;;3.90;;
61460;SDS011;47325;50.506;4.472;2024-01-30T09:16:52;6.20;;;4.10;;
61460;SDS011;47325;50.506;4.472;2024-01-30T09:22:36;6.20;;;4.20;;
61460;SDS011;47325;50.506;4.472;2024-01-30T09:28:21;7.50;;;4.10;;
61460;SDS011;47325;50.506;4.472;2024-01-30T09:34:10;8.00;;;4.20;;
61460;SDS011;47325;50.506;4.472;2024-01-30T09:39:55;5.60;;;3.60;;
61460;SDS011;47325;50.506;4.472;2024-01-30T09:45:39;7.30;;;4.00;;
61460;SDS011;47325;50.506;4.472;2024-01-30T09:51:26;6.90;;;4.30;;
61460;SDS011;47325;50.506;4.472;2024-01-30T09:57:11;7.50;;;4.10;;
61460;SDS011;47325;50.506;4.472;2024-01-30T10:02:55;6.10;;;4.10;;
61460;SDS011;47325;50.506;4.472;2024-01-30T10:08:39;8.20;;;4.10;;
61460;SDS011;47325;50.506;4.472;2024-01-30T10:14:24;6.00;;;4.00;;
61460;SDS011;47325;50.506;4.472;2024-01-30T10:20:09;7.80;;;4.40;;
61460;SDS011;47325;50.506;4.472;2024-01-30T10:25:54;6.80;;;4.00;;
61460;SDS011;47325;50.506;4.472;2024-01-30T10:31:39;7.00;;;4.50;;
61460;SDS011;47325;50.506;4.472;2024-01-30T10:37:24;8.50;;;4.50;;
61460;SDS011;47325;50.506;4.472;2024-01-30T10:43:09;7.10;;;4.50;;
61460;SDS011;47325;50.506;4.472;2024-01-30T10:48:56;8.00;;;4.90;;
61460;SDS011;47325;50.506;4.472;2024-01-30T10:54:42;9.80;;;4.80;;
61460;SDS011;47325;50.506;4.472;2024-01-30T11:00:28;8.80;;;4.60;;
61460;SDS011;47325;50.506;4.472;2024-01-30T11:06:14;10.60;;;4.90;;
61460;SDS011;47325;50.506;4.472;2024-01-30T11:11:59;8.70;;;4.60;;
61460;SDS011;47325;50.506;4.472;2024-01-30T11:17:49;8.30;;;4.70;;
61460;SDS011;47325;50.506;4.472;2024-01-30T11:23:35;7.00;;;4.70;;
61460;SDS011;47325;50.506;4.472;2024-01-30T11:29:20;8.90;;;5.30;;
61460;SDS011;47325;50.506;4.472;2024-01-30T11:35:08;10.20;;;5.20;;
61460;SDS011;47325;50.506;4.472;2024-01-30T11:40:54;10.50;;;5.20;;
61460;SDS011;47325;50.506;4.472;2024-01-30T11:46:38;8.60;;;5.00;;
61460;SDS011;47325;50.506;4.472;2024-01-30T11:52:24;9.50;;;4.80;;
61460;SDS011;47325;50.506;4.472;2024-01-30T11:58:09;8.50;;;4.50;;
61460;SDS011;47325;50.506;4.472;2024-01-30T12:03:53;9.90;;;4.40;;
61460;SDS011;47325;50.506;4.472;2024-01-30T12:09:38;6.80;;;4.40;;
61460;SDS011;47325;50.506;4.472;2024-01-30T12:15:24;6.60;;;4.00;;
61460;SDS011;47325;50.506;4.472;2024-01-30T12:21:10;6.80;;;4.20;;
61460;SDS011;47325;50.506;4.472;2024-01-30T12:26:56;7.70;;;3.80;;
61460;SDS011;47325;50.506;4.472;2024-01-30T12:32:41;8.10;;;3.40;;
61460;SDS011;47325;50.506;4.472;2024-01-30T12:38:27;5.60;;;3.00;;
61460;SDS011;47325;50.506;4.472;2024-01-30T12:44:11;6.50;;;2.40;;
61460;SDS011;47325;50.506;4.472;2024-01-30T12:49:58;3.60;;;2.10;;
61460;SDS011;47325;50.506;4.472;2024-01-30T12:55:43;4.10;;;1.90;;
61460;SDS011;47325;50.506;4.472;2024-01-30T13:01:27;3.40;;;2.30;;
61460;SDS011;47325;50.506;4.472;2024-01-30T13:07:13;3.10;;;1.80;;
61460;SDS011;47325;50.506;4.472;2024-01-30T13:12:58;2.70;;;1.50;;
61460;SDS011;47325;50.506;4.472;2024-01-30T13:18:44;2.30;;;1.00;;
61460;SDS011;47325;50.506;4.472;2024-01-30T13:24:28;1.60;;;1.20;;
61460;SDS011;47325;50.506;4.472;2024-01-30T13:30:13;1.40;;;1.00;;
61460;SDS011;47325;50.506;4.472;2024-01-30T13:35:58;1.20;;;0.70;;
61460;SDS011;47325;50.506;4.472;2024-01-30T13:41:42;1.50;;;0.70;;
61460;SDS011;47325;50.506;4.472;2024-01-30T13:47:26;2.10;;;0.80;;
61460;SDS011;47325;50.506;4.472;2024-01-30T13:53:11;1.50;;;0.60;;
61460;SDS011;47325;50.506;4.472;2024-01-30T13:58:58;1.40;;;0.80;;
61460;SDS011;47325;50.506;4.472;2024-01-30T14:04:43;2.20;;;0.70;;
61460;SDS011;47325;50.506;4.472;2024-01-30T14:10:28;1.90;;;0.70;;
61460;SDS011;47325;50.506;4.472;2024-01-30T14:16:13;2.50;;;0.80;;
61460;SDS011;47325;50.506;4.472;2024-01-30T14:21:57;1.80;;;0.90;;
61460;SDS011;47325;50.506;4.472;2024-01-30T14:27:41;1.90;;;0.60;;
61460;SDS011;47325;50.506;4.472;2024-01-30T14:33:26;2.30;;;0.70;;
61460;SDS011;47325;50.506;4.472;2024-01-30T14:39:12;3.00;;;0.80;;
61460;SDS011;47325;50.506;4.472;2024-01-30T14:44:56;2.40;;;0.70;;
61460;SDS011;47325;50.506;4.472;2024-01-30T14:50:49;2.30;;;0.80;;
61460;SDS011;47325;50.506;4.472;2024-01-30T14:56:34;2.10;;;0.70;;
61460;SDS011;47325;50.506;4.472;2024-01-30T15:02:18;2.80;;;0.90;;
61460;SDS011;47325;50.506;4.472;2024-01-30T15:08:03;2.50;;;0.90;;
61460;SDS011;47325;50.506;4.472;2024-01-30T15:13:50;1.40;;;0.80;;
61460;SDS011;47325;50.506;4.472;2024-01-30T15:19:34;1.20;;;0.60;;
61460;SDS011;47325;50.506;4.472;2024-01-30T15:25:20;2.60;;;0.80;;
61460;SDS011;47325;50.506;4.472;2024-01-30T15:31:05;2.10;;;0.80;;
61460;SDS011;47325;50.506;4.472;2024-01-30T15:36:49;6.00;;;1.60;;
61460;SDS011;47325;50.506;4.472;2024-01-30T15:42:34;2.00;;;0.70;;
61460;SDS011;47325;50.506;4.472;2024-01-30T15:48:18;2.80;;;0.90;;
61460;SDS011;47325;50.506;4.472;2024-01-30T15:54:04;2.60;;;0.80;;
61460;SDS011;47325;50.506;4.472;2024-01-30T15:59:48;2.00;;;0.70;;
61460;SDS011;47325;50.506;4.472;2024-01-30T16:05:32;2.90;;;0.70;;
61460;SDS011;47325;50.506;4.472;2024-01-30T16:11:16;2.00;;;0.80;;
61460;SDS011;47325;50.506;4.472;2024-01-30T16:17:01;1.50;;;0.70;;
61460;SDS011;47325;50.506;4.472;2024-01-30T16:22:46;3.80;;;0.90;;
61460;SDS011;47325;50.506;4.472;2024-01-30T16:28:34;2.90;;;0.90;;
61460;SDS011;47325;50.506;4.472;2024-01-30T16:34:19;2.00;;;0.80;;
61460;SDS011;47325;50.506;4.472;2024-01-30T16:40:04;2.10;;;0.90;;
61460;SDS011;47325;50.506;4.472;2024-01-30T16:45:50;2.40;;;0.70;;
61460;SDS011;47325;50.506;4.472;2024-01-30T16:51:34;1.50;;;0.60;;
61460;SDS011;47325;50.506;4.472;2024-01-30T16:57:19;1.90;;;0.60;;
61460;SDS011;47325;50.506;4.472;2024-01-30T17:03:03;1.10;;;0.60;;
61460;SDS011;47325;50.506;4.472;2024-01-30T17:08:49;1.60;;;0.60;;
61460;SDS011;47325;50.506;4.472;2024-01-30T17:14:33;1.90;;;0.70;;
61460;SDS011;47325;50.506;4.472;2024-01-30T17:20:18;2.10;;;0.80;;
61460;SDS011;47325;50.506;4.472;2024-01-30T17:26:03;3.80;;;1.40;;
61460;SDS011;47325;50.506;4.472;2024-01-30T17:31:48;4.00;;;1.00;;
61460;SDS011;47325;50.506;4.472;2024-01-30T17:37:32;4.20;;;1.30;;
61460;SDS011;47325;50.506;4.472;2024-01-30T17:43:17;1.20;;;0.90;;
61460;SDS011;47325;50.506;4.472;2024-01-30T17:49:01;2.80;;;1.10;;
61460;SDS011;47325;50.506;4.472;2024-01-30T17:54:46;16.70;;;5.10;;
61460;SDS011;47325;50.506;4.472;2024-01-30T18:00:35;89.60;;;33.70;;
61460;SDS011;47325;50.506;4.472;2024-01-30T18:06:20;42.90;;;16.50;;
61460;SDS011;47325;50.506;4.472;2024-01-30T18:12:04;32.90;;;12.70;;
61460;SDS011;47325;50.506;4.472;2024-01-30T18:17:49;34.30;;;12.00;;
61460;SDS011;47325;50.506;4.472;2024-01-30T18:23:33;33.60;;;10.90;;
61460;SDS011;47325;50.506;4.472;2024-01-30T18:29:17;26.80;;;9.40;;
61460;SDS011;47325;50.506;4.472;2024-01-30T18:35:03;27.40;;;9.20;;
61460;SDS011;47325;50.506;4.472;2024-01-30T18:40:47;21.20;;;8.20;;
61460;SDS011;47325;50.506;4.472;2024-01-30T18:46:34;20.30;;;7.10;;
61460;SDS011;47325;50.506;4.472;2024-01-30T18:52:19;17.70;;;7.00;;
61460;SDS011;47325;50.506;4.472;2024-01-30T18:58:04;17.50;;;6.80;;
61460;SDS011;47325;50.506;4.472;2024-01-30T19:03:48;17.60;;;6.20;;
61460;SDS011;47325;50.506;4.472;2024-01-30T19:09:33;15.60;;;5.30;;
61460;SDS011;47325;50.506;4.472;2024-01-30T19:15:18;13.60;;;5.20;;
61460;SDS011;47325;50.506;4.472;2024-01-30T19:21:02;11.80;;;5.00;;
61460;SDS011;47325;50.506;4.472;2024-01-30T19:26:47;12.60;;;4.40;;
61460;SDS011;47325;50.506;4.472;2024-01-30T19:32:31;10.60;;;4.40;;
61460;SDS011;47325;50.506;4.472;2024-01-30T19:38:15;11.10;;;4.70;;
61460;SDS011;47325;50.506;4.472;2024-01-30T19:43:59;10.60;;;4.10;;
61460;SDS011;47325;50.506;4.472;2024-01-30T19:49:45;10.30;;;4.40;;
61460;SDS011;47325;50.506;4.472;2024-01-30T19:55:30;8.00;;;3.60;;
61460;SDS011;47325;50.506;4.472;2024-01-30T20:01:15;10.30;;;3.80;;
61460;SDS011;47325;50.506;4.472;2024-01-30T20:07:00;8.90;;;3.80;;
61460;SDS011;47325;50.506;4.472;2024-01-30T20:12:45;10.20;;;3.60;;
61460;SDS011;47325;50.506;4.472;2024-01-30T20:18:29;7.00;;;3.50;;
61460;SDS011;47325;50.506;4.472;2024-01-30T20:24:14;7.40;;;3.00;;
61460;SDS011;47325;50.506;4.472;2024-01-30T20:29:58;6.50;;;2.90;;
61460;SDS011;47325;50.506;4.472;2024-01-30T20:35:43;7.90;;;3.10;;
61460;SDS011;47325;50.506;4.472;2024-01-30T20:41:28;7.20;;;3.30;;
61460;SDS011;47325;50.506;4.472;2024-01-30T20:47:13;6.30;;;2.90;;
61460;SDS011;47325;50.506;4.472;2024-01-30T20:52:58;5.50;;;2.50;;
61460;SDS011;47325;50.506;4.472;2024-01-30T20:58:42;7.40;;;2.90;;
61460;SDS011;47325;50.506;4.472;2024-01-30T21:04:26;5.10;;;2.80;;
61460;SDS011;47325;50.506;4.472;2024-01-30T21:10:13;7.30;;;2.60;;
61460;SDS011;47325;50.506;4.472;2024-01-30T21:15:58;6.50;;;2.80;;
61460;SDS011;47325;50.506;4.472;2024-01-30T21:21:43;6.00;;;2.70;;
61460;SDS011;47325;50.506;4.472;2024-01-30T21:27:27;7.10;;;3.00;;
61460;SDS011;47325;50.506;4.472;2024-01-30T21:33:12;6.70;;;2.80;;
61460;SDS011;47325;50.506;4.472;2024-01-30T21:38:57;5.70;;;2.50;;
61460;SDS011;47325;50.506;4.472;2024-01-30T21:44:43;5.60;;;2.30;;
61460;SDS011;47325;50.506;4.472;2024-01-30T21:50:28;4.60;;;2.40;;
61460;SDS011;47325;50.506;4.472;2024-01-30T21:56:13;5.30;;;2.30;;
61460;SDS011;47325;50.506;4.472;2024-01-30T22:01:59;5.10;;;2.60;;
61460;SDS011;47325;50.506;4.472;2024-01-30T22:07:45;5.00;;;2.50;;
61460;SDS011;47325;50.506;4.472;2024-01-30T22:13:30;5.60;;;2.60;;
61460;SDS011;47325;50.506;4.472;2024-01-30T22:19:15;5.70;;;2.40;;
61460;SDS011;47325;50.506;4.472;2024-01-30T22:25:01;4.70;;;2.30;;
61460;SDS011;47325;50.506;4.472;2024-01-30T22:30:46;5.00;;;2.60;;
61460;SDS011;47325;50.506;4.472;2024-01-30T22:36:30;6.20;;;2.50;;
61460;SDS011;47325;50.506;4.472;2024-01-30T22:42:15;6.10;;;2.70;;
61460;SDS011;47325;50.506;4.472;2024-01-30T22:47:59;5.60;;;2.40;;
61460;SDS011;47325;50.506;4.472;2024-01-30T22:53:44;4.80;;;2.80;;
61460;SDS011;47325;50.506;4.472;2024-01-30T22:59:29;6.60;;;2.90;;
61460;SDS011;47325;50.506;4.472;2024-01-30T23:05:14;6.10;;;2.60;;
61460;SDS011;47325;50.506;4.472;2024-01-30T23:11:00;4.50;;;2.30;;
61460;SDS011;47325;50.506;4.472;2024-01-30T23:16:44;5.60;;;2.80;;
61460;SDS011;47325;50.506;4.472;2024-01-30T23:22:28;5.90;;;2.90;;
61460;SDS011;47325;50.506;4.472;2024-01-30T23:28:13;4.50;;;2.30;;
61460;SDS011;47325;50.506;4.472;2024-01-30T23:33:57;5.30;;;2.90;;
61460;SDS011;47325;50.506;4.472;2024-01-30T23:39:42;4.30;;;2.30;;
61460;SDS011;47325;50.506;4.472;2024-01-30T23:45:26;5.40;;;2.60;;
61460;SDS011;47325;50.506;4.472;2024-01-30T23:51:14;6.70;;;2.50;;
61460;SDS011;47325;50.506;4.472;2024-01-30T23:56:58;4.40;;;2.20;;
